sensor_id;sensor_type;location;lat;lon;timestamp;temperature;humidity
64961;SHT31;51487;52.266;10.542;2023-04-12T00:00:31;5.15;84.14
64961;SHT31;51487;52.266;10.542;2023-04-12T00:02:56;5.19;84.12
64961;SHT31;51487;52.266;10.542;2023-04-12T00:05:24;5.19;83.98
64961;SHT31;51487;52.266;10.542;2023-04-12T00:07:52;5.19;84.22
64961;SHT31;51487;52.266;10.542;2023-04-12T00:10:19;5.18;83.92
64961;SHT31;51487;52.266;10.542;2023-04-12T00:12:44;5.16;83.47
64961;SHT31;51487;52.266;10.542;2023-04-12T00:15:11;5.22;83.21
64961;SHT31;51487;52.266;10.542;2023-04-12T00:17:36;5.24;83.00
64961;SHT31;51487;52.266;10.542;2023-04-12T00:20:02;5.26;82.88
64961;SHT31;51487;52.266;10.542;2023-04-12T00:22:35;5.30;82.61
64961;SHT31;51487;52.266;10.542;2023-04-12T00:25:01;5.36;82.36
64961;SHT31;51487;52.266;10.542;2023-04-12T00:27:26;5.37;82.09
64961;SHT31;51487;52.266;10.542;2023-04-12T00:29:51;5.36;82.00
64961;SHT31;51487;52.266;10.542;2023-04-12T00:32:17;5.37;81.68
64961;SHT31;51487;52.266;10.542;2023-04-12T00:34:42;5.50;81.18
64961;SHT31;51487;52.266;10.542;2023-04-12T00:37:08;5.47;81.03
64961;SHT31;51487;52.266;10.542;2023-04-12T00:39:33;5.51;80.38
64961;SHT31;51487;52.266;10.542;2023-04-12T00:42:02;5.54;80.12
64961;SHT31;51487;52.266;10.542;2023-04-12T00:44:28;5.51;79.71
64961;SHT31;51487;52.266;10.542;2023-04-12T00:46:53;5.58;79.58
64961;SHT31;51487;52.266;10.542;2023-04-12T00:49:18;5.62;79.69
64961;SHT31;51487;52.266;10.542;2023-04-12T00:51:44;5.62;79.47
64961;SHT31;51487;52.266;10.542;2023-04-12T00:54:10;5.68;80.76
64961;SHT31;51487;52.266;10.542;2023-04-12T00:56:35;5.70;79.36
64961;SHT31;51487;52.266;10.542;2023-04-12T00:59:02;5.68;79.71
64961;SHT31;51487;52.266;10.542;2023-04-12T01:01:27;5.68;79.24
64961;SHT31;51487;52.266;10.542;2023-04-12T01:03:53;5.75;78.98
64961;SHT31;51487;52.266;10.542;2023-04-12T01:17:13;5.91;78.00
64961;SHT31;51487;52.266;10.542;2023-04-12T01:27:49;5.91;77.09
64961;SHT31;51487;52.266;10.542;2023-04-12T01:30:16;5.98;77.45
64961;SHT31;51487;52.266;10.542;2023-04-12T01:32:44;5.97;77.28
64961;SHT31;51487;52.266;10.542;2023-04-12T01:35:12;6.03;77.51
64961;SHT31;51487;52.266;10.542;2023-04-12T01:37:39;5.99;76.77
64961;SHT31;51487;52.266;10.542;2023-04-12T01:40:05;5.99;76.84
64961;SHT31;51487;52.266;10.542;2023-04-12T01:42:33;5.94;77.25
64961;SHT31;51487;52.266;10.542;2023-04-12T01:44:59;5.91;76.92
64961;SHT31;51487;52.266;10.542;2023-04-12T01:47:24;5.87;77.44
64961;SHT31;51487;52.266;10.542;2023-04-12T01:52:38;5.81;77.31
64961;SHT31;51487;52.266;10.542;2023-04-12T01:55:06;5.81;77.31
64961;SHT31;51487;52.266;10.542;2023-04-12T01:57:32;5.77;77.57
64961;SHT31;51487;52.266;10.542;2023-04-12T01:59:59;5.77;77.92
64961;SHT31;51487;52.266;10.542;2023-04-12T02:02:26;5.74;77.62
64961;SHT31;51487;52.266;10.542;2023-04-12T02:04:52;5.71;77.35
64961;SHT31;51487;52.266;10.542;2023-04-12T02:07:18;5.68;77.61
64961;SHT31;51487;52.266;10.542;2023-04-12T02:09:44;5.72;77.31
64961;SHT31;51487;52.266;10.542;2023-04-12T02:12:10;5.71;77.00
64961;SHT31;51487;52.266;10.542;2023-04-12T02:14:35;5.65;77.42
64961;SHT31;51487;52.266;10.542;2023-04-12T02:17:01;5.71;77.11
64961;SHT31;51487;52.266;10.542;2023-04-12T02:19:28;5.72;76.88
64961;SHT31;51487;52.266;10.542;2023-04-12T02:21:53;5.74;76.89
64961;SHT31;51487;52.266;10.542;2023-04-12T02:24:19;5.72;76.92
64961;SHT31;51487;52.266;10.542;2023-04-12T02:26:44;5.78;76.66
64961;SHT31;51487;52.266;10.542;2023-04-12T02:29:10;5.81;77.86
64961;SHT31;51487;52.266;10.542;2023-04-12T02:31:36;5.75;76.57
64961;SHT31;51487;52.266;10.542;2023-04-12T02:34:03;5.79;77.04
64961;SHT31;51487;52.266;10.542;2023-04-12T02:36:30;5.74;77.33
64961;SHT31;51487;52.266;10.542;2023-04-12T02:38:55;5.78;76.98
64961;SHT31;51487;52.266;10.542;2023-04-12T02:41:22;5.77;76.87
64961;SHT31;51487;52.266;10.542;2023-04-12T02:43:47;5.74;76.65
64961;SHT31;51487;52.266;10.542;2023-04-12T02:46:20;5.79;76.86
64961;SHT31;51487;52.266;10.542;2023-04-12T02:48:47;5.72;77.05
64961;SHT31;51487;52.266;10.542;2023-04-12T02:51:12;5.79;77.13
64961;SHT31;51487;52.266;10.542;2023-04-12T02:53:38;5.70;77.10
64961;SHT31;51487;52.266;10.542;2023-04-12T02:56:04;5.78;77.00
64961;SHT31;51487;52.266;10.542;2023-04-12T02:58:30;5.78;77.00
64961;SHT31;51487;52.266;10.542;2023-04-12T03:00:55;5.78;76.79
64961;SHT31;51487;52.266;10.542;2023-04-12T03:03:24;5.71;76.98
64961;SHT31;51487;52.266;10.542;2023-04-12T03:05:51;5.75;77.05
64961;SHT31;51487;52.266;10.542;2023-04-12T03:08:17;5.77;77.21
64961;SHT31;51487;52.266;10.542;2023-04-12T03:10:42;5.74;77.14
64961;SHT31;51487;52.266;10.542;2023-04-12T03:13:08;5.82;77.26
64961;SHT31;51487;52.266;10.542;2023-04-12T03:15:33;5.91;77.34
64961;SHT31;51487;52.266;10.542;2023-04-12T03:17:59;5.77;77.52
64961;SHT31;51487;52.266;10.542;2023-04-12T03:20:24;5.77;77.31
64961;SHT31;51487;52.266;10.542;2023-04-12T03:22:50;5.79;77.48
64961;SHT31;51487;52.266;10.542;2023-04-12T03:25:16;5.91;77.21
64961;SHT31;51487;52.266;10.542;2023-04-12T03:27:43;5.88;77.08
64961;SHT31;51487;52.266;10.542;2023-04-12T03:30:09;5.87;77.07
64961;SHT31;51487;52.266;10.542;2023-04-12T03:32:40;5.87;77.06
64961;SHT31;51487;52.266;10.542;2023-04-12T03:35:07;5.87;77.07
64961;SHT31;51487;52.266;10.542;2023-04-12T03:37:33;5.89;76.83
64961;SHT31;51487;52.266;10.542;2023-04-12T03:39:59;5.95;76.92
64961;SHT31;51487;52.266;10.542;2023-04-12T03:42:25;6.01;76.79
64961;SHT31;51487;52.266;10.542;2023-04-12T03:44:51;6.05;77.50
64961;SHT31;51487;52.266;10.542;2023-04-12T03:47:17;6.02;76.87
64961;SHT31;51487;52.266;10.542;2023-04-12T03:49:43;5.97;76.96
64961;SHT31;51487;52.266;10.542;2023-04-12T03:52:08;6.03;77.65
64961;SHT31;51487;52.266;10.542;2023-04-12T03:54:33;6.06;76.64
64961;SHT31;51487;52.266;10.542;2023-04-12T03:56:59;6.09;76.40
64961;SHT31;51487;52.266;10.542;2023-04-12T03:59:26;6.02;76.80
64961;SHT31;51487;52.266;10.542;2023-04-12T04:01:52;6.01;76.73
64961;SHT31;51487;52.266;10.542;2023-04-12T04:04:17;6.05;76.97
64961;SHT31;51487;52.266;10.542;2023-04-12T04:06:43;5.98;76.89
64961;SHT31;51487;52.266;10.542;2023-04-12T04:09:08;6.05;76.96
64961;SHT31;51487;52.266;10.542;2023-04-12T04:11:34;6.01;76.78
64961;SHT31;51487;52.266;10.542;2023-04-12T04:13:59;6.01;76.93
64961;SHT31;51487;52.266;10.542;2023-04-12T04:16:25;6.09;76.77
64961;SHT31;51487;52.266;10.542;2023-04-12T04:18:51;6.05;76.60
64961;SHT31;51487;52.266;10.542;2023-04-12T04:21:16;6.09;76.55
64961;SHT31;51487;52.266;10.542;2023-04-12T04:23:41;6.19;76.32
64961;SHT31;51487;52.266;10.542;2023-04-12T04:26:12;6.26;75.89
64961;SHT31;51487;52.266;10.542;2023-04-12T04:28:40;6.20;76.33
64961;SHT31;51487;52.266;10.542;2023-04-12T04:31:09;6.18;76.71
64961;SHT31;51487;52.266;10.542;2023-04-12T04:33:35;6.33;75.86
64961;SHT31;51487;52.266;10.542;2023-04-12T04:36:01;6.30;75.75
64961;SHT31;51487;52.266;10.542;2023-04-12T04:38:28;6.37;75.56
64961;SHT31;51487;52.266;10.542;2023-04-12T04:41:00;6.34;75.65
64961;SHT31;51487;52.266;10.542;2023-04-12T04:43:29;6.41;75.90
64961;SHT31;51487;52.266;10.542;2023-04-12T04:45:55;6.37;75.95
64961;SHT31;51487;52.266;10.542;2023-04-12T04:48:21;6.30;75.85
64961;SHT31;51487;52.266;10.542;2023-04-12T04:50:47;6.36;75.61
64961;SHT31;51487;52.266;10.542;2023-04-12T04:53:12;6.39;75.37
64961;SHT31;51487;52.266;10.542;2023-04-12T04:55:38;6.39;75.68
64961;SHT31;51487;52.266;10.542;2023-04-12T04:58:04;6.43;75.45
64961;SHT31;51487;52.266;10.542;2023-04-12T05:00:30;6.34;75.46
64961;SHT31;51487;52.266;10.542;2023-04-12T05:02:56;6.37;75.43
64961;SHT31;51487;52.266;10.542;2023-04-12T05:05:21;6.44;75.39
64961;SHT31;51487;52.266;10.542;2023-04-12T05:07:50;6.50;74.83
64961;SHT31;51487;52.266;10.542;2023-04-12T05:10:15;6.43;75.25
64961;SHT31;51487;52.266;10.542;2023-04-12T05:12:41;6.36;75.76
64961;SHT31;51487;52.266;10.542;2023-04-12T05:15:06;6.37;75.80
64961;SHT31;51487;52.266;10.542;2023-04-12T05:17:32;6.28;75.76
64961;SHT31;51487;52.266;10.542;2023-04-12T05:19:59;6.29;75.75
64961;SHT31;51487;52.266;10.542;2023-04-12T05:22:24;6.26;76.06
64961;SHT31;51487;52.266;10.542;2023-04-12T05:24:50;6.28;76.06
64961;SHT31;51487;52.266;10.542;2023-04-12T05:27:15;6.18;76.44
64961;SHT31;51487;52.266;10.542;2023-04-12T05:29:43;6.25;76.76
64961;SHT31;51487;52.266;10.542;2023-04-12T05:32:09;6.15;76.80
64961;SHT31;51487;52.266;10.542;2023-04-12T05:34:35;6.25;77.06
64961;SHT31;51487;52.266;10.542;2023-04-12T05:37:01;6.25;77.00
64961;SHT31;51487;52.266;10.542;2023-04-12T05:39:27;6.28;77.34
64961;SHT31;51487;52.266;10.542;2023-04-12T05:41:52;6.39;76.63
64961;SHT31;51487;52.266;10.542;2023-04-12T05:44:18;6.40;76.68
64961;SHT31;51487;52.266;10.542;2023-04-12T05:46:43;6.49;76.46
64961;SHT31;51487;52.266;10.542;2023-04-12T05:49:09;6.41;76.13
64961;SHT31;51487;52.266;10.542;2023-04-12T05:51:35;6.49;75.86
64961;SHT31;51487;52.266;10.542;2023-04-12T05:54:00;6.47;75.51
64961;SHT31;51487;52.266;10.542;2023-04-12T05:56:25;6.58;75.58
64961;SHT31;51487;52.266;10.542;2023-04-12T05:58:51;6.60;75.61
64961;SHT31;51487;52.266;10.542;2023-04-12T06:01:16;6.66;75.48
64961;SHT31;51487;52.266;10.542;2023-04-12T06:03:44;6.91;75.11
64961;SHT31;51487;52.266;10.542;2023-04-12T06:06:10;7.11;74.03
64961;SHT31;51487;52.266;10.542;2023-04-12T06:08:36;7.42;73.60
64961;SHT31;51487;52.266;10.542;2023-04-12T06:11:03;7.56;72.76
64961;SHT31;51487;52.266;10.542;2023-04-12T06:13:28;7.69;72.97
64961;SHT31;51487;52.266;10.542;2023-04-12T06:15:54;7.88;72.14
64961;SHT31;51487;52.266;10.542;2023-04-12T06:18:19;8.01;71.13
64961;SHT31;51487;52.266;10.542;2023-04-12T06:20:44;8.11;71.54
64961;SHT31;51487;52.266;10.542;2023-04-12T06:23:10;8.32;70.61
64961;SHT31;51487;52.266;10.542;2023-04-12T06:25:36;8.25;70.84
64961;SHT31;51487;52.266;10.542;2023-04-12T06:28:01;8.18;71.12
64961;SHT31;51487;52.266;10.542;2023-04-12T06:30:27;8.24;71.47
64961;SHT31;51487;52.266;10.542;2023-04-12T06:32:52;8.35;71.62
64961;SHT31;51487;52.266;10.542;2023-04-12T06:35:17;8.55;71.39
64961;SHT31;51487;52.266;10.542;2023-04-12T06:37:44;8.72;71.33
64961;SHT31;51487;52.266;10.542;2023-04-12T06:40:09;8.99;70.99
64961;SHT31;51487;52.266;10.542;2023-04-12T06:42:36;9.13;70.59
64961;SHT31;51487;52.266;10.542;2023-04-12T06:45:02;9.14;69.67
64961;SHT31;51487;52.266;10.542;2023-04-12T06:47:28;9.27;69.73
64961;SHT31;51487;52.266;10.542;2023-04-12T06:49:54;9.30;69.31
64961;SHT31;51487;52.266;10.542;2023-04-12T06:52:25;9.28;68.58
64961;SHT31;51487;52.266;10.542;2023-04-12T06:54:51;9.28;68.83
64961;SHT31;51487;52.266;10.542;2023-04-12T06:57:16;9.20;68.93
64961;SHT31;51487;52.266;10.542;2023-04-12T06:59:42;9.21;69.23
64961;SHT31;51487;52.266;10.542;2023-04-12T07:02:07;9.34;69.07
64961;SHT31;51487;52.266;10.542;2023-04-12T07:04:33;9.49;69.30
64961;SHT31;51487;52.266;10.542;2023-04-12T07:06:58;9.49;68.72
64961;SHT31;51487;52.266;10.542;2023-04-12T07:09:23;9.61;68.92
64961;SHT31;51487;52.266;10.542;2023-04-12T07:11:49;9.61;68.77
64961;SHT31;51487;52.266;10.542;2023-04-12T07:14:14;9.56;68.65
64961;SHT31;51487;52.266;10.542;2023-04-12T07:16:41;9.66;68.94
64961;SHT31;51487;52.266;10.542;2023-04-12T07:19:06;9.63;69.52
64961;SHT31;51487;52.266;10.542;2023-04-12T07:21:32;9.89;69.21
64961;SHT31;51487;52.266;10.542;2023-04-12T07:23:58;9.83;69.46
64961;SHT31;51487;52.266;10.542;2023-04-12T07:26:23;10.04;68.88
64961;SHT31;51487;52.266;10.542;2023-04-12T07:28:48;9.99;69.03
64961;SHT31;51487;52.266;10.542;2023-04-12T07:31:14;10.00;68.54
64961;SHT31;51487;52.266;10.542;2023-04-12T07:33:39;10.07;68.99
64961;SHT31;51487;52.266;10.542;2023-04-12T07:36:05;10.03;69.36
64961;SHT31;51487;52.266;10.542;2023-04-12T07:38:30;10.23;69.21
64961;SHT31;51487;52.266;10.542;2023-04-12T07:40:56;10.17;70.05
64961;SHT31;51487;52.266;10.542;2023-04-12T07:43:22;10.18;70.26
64961;SHT31;51487;52.266;10.542;2023-04-12T07:45:48;10.06;70.95
64961;SHT31;51487;52.266;10.542;2023-04-12T07:48:13;9.92;71.06
64961;SHT31;51487;52.266;10.542;2023-04-12T07:50:39;9.96;71.17
64961;SHT31;51487;52.266;10.542;2023-04-12T07:53:21;10.09;70.80
64961;SHT31;51487;52.266;10.542;2023-04-12T07:55:48;10.34;70.67
64961;SHT31;51487;52.266;10.542;2023-04-12T07:58:17;10.50;69.99
64961;SHT31;51487;52.266;10.542;2023-04-12T08:00:43;10.78;70.40
64961;SHT31;51487;52.266;10.542;2023-04-12T08:03:13;10.64;69.99
64961;SHT31;51487;52.266;10.542;2023-04-12T08:05:39;10.67;69.82
64961;SHT31;51487;52.266;10.542;2023-04-12T08:08:05;10.69;69.76
64961;SHT31;51487;52.266;10.542;2023-04-12T08:10:31;10.54;70.18
64961;SHT31;51487;52.266;10.542;2023-04-12T08:12:57;10.67;70.48
64961;SHT31;51487;52.266;10.542;2023-04-12T08:15:22;10.65;70.18
64961;SHT31;51487;52.266;10.542;2023-04-12T08:17:48;10.82;70.05
64961;SHT31;51487;52.266;10.542;2023-04-12T08:20:13;11.01;69.52
64961;SHT31;51487;52.266;10.542;2023-04-12T08:22:44;11.12;69.21
64961;SHT31;51487;52.266;10.542;2023-04-12T08:25:10;11.18;69.32
64961;SHT31;51487;52.266;10.542;2023-04-12T08:27:37;11.33;69.09
64961;SHT31;51487;52.266;10.542;2023-04-12T08:30:03;11.41;69.58
64961;SHT31;51487;52.266;10.542;2023-04-12T08:32:30;11.61;69.54
64961;SHT31;51487;52.266;10.542;2023-04-12T08:34:55;11.95;68.61
64961;SHT31;51487;52.266;10.542;2023-04-12T08:37:21;12.21;68.09
64961;SHT31;51487;52.266;10.542;2023-04-12T08:39:46;12.57;67.41
64961;SHT31;51487;52.266;10.542;2023-04-12T08:42:14;12.86;67.55
64961;SHT31;51487;52.266;10.542;2023-04-12T08:44:40;12.94;66.51
64961;SHT31;51487;52.266;10.542;2023-04-12T08:47:08;12.70;67.37
64961;SHT31;51487;52.266;10.542;2023-04-12T08:49:33;12.64;68.02
64961;SHT31;51487;52.266;10.542;2023-04-12T08:52:02;12.81;67.81
64961;SHT31;51487;52.266;10.542;2023-04-12T08:54:27;12.79;67.86
64961;SHT31;51487;52.266;10.542;2023-04-12T08:56:55;12.79;68.33
64961;SHT31;51487;52.266;10.542;2023-04-12T08:59:23;12.98;67.06
64961;SHT31;51487;52.266;10.542;2023-04-12T09:01:49;13.12;67.01
64961;SHT31;51487;52.266;10.542;2023-04-12T09:04:16;13.14;67.60
64961;SHT31;51487;52.266;10.542;2023-04-12T09:06:41;13.21;66.69
64961;SHT31;51487;52.266;10.542;2023-04-12T09:09:07;13.32;66.01
64961;SHT31;51487;52.266;10.542;2023-04-12T09:11:32;13.41;65.24
64961;SHT31;51487;52.266;10.542;2023-04-12T09:13:58;13.35;64.87
64961;SHT31;51487;52.266;10.542;2023-04-12T09:16:40;13.65;63.93
64961;SHT31;51487;52.266;10.542;2023-04-12T09:19:06;13.31;61.18
64961;SHT31;51487;52.266;10.542;2023-04-12T09:21:33;13.49;61.05
64961;SHT31;51487;52.266;10.542;2023-04-12T09:24:07;13.52;60.91
64961;SHT31;51487;52.266;10.542;2023-04-12T09:26:37;13.45;61.43
64961;SHT31;51487;52.266;10.542;2023-04-12T09:29:03;13.62;61.30
64961;SHT31;51487;52.266;10.542;2023-04-12T09:31:29;13.55;61.87
64961;SHT31;51487;52.266;10.542;2023-04-12T09:34:07;13.41;62.48
64961;SHT31;51487;52.266;10.542;2023-04-12T09:36:37;13.27;64.58
64961;SHT31;51487;52.266;10.542;2023-04-12T09:39:03;12.91;66.15
64961;SHT31;51487;52.266;10.542;2023-04-12T09:41:30;12.42;67.67
64961;SHT31;51487;52.266;10.542;2023-04-12T09:43:59;12.11;69.93
64961;SHT31;51487;52.266;10.542;2023-04-12T09:46:25;12.02;70.54
64961;SHT31;51487;52.266;10.542;2023-04-12T09:48:52;11.92;71.32
64961;SHT31;51487;52.266;10.542;2023-04-12T09:51:30;11.85;73.61
64961;SHT31;51487;52.266;10.542;2023-04-12T09:53:58;11.75;73.95
64961;SHT31;51487;52.266;10.542;2023-04-12T09:56:27;11.82;74.53
64961;SHT31;51487;52.266;10.542;2023-04-12T09:58:54;11.67;74.90
64961;SHT31;51487;52.266;10.542;2023-04-12T10:01:21;11.54;74.15
64961;SHT31;51487;52.266;10.542;2023-04-12T10:03:48;11.49;75.09
64961;SHT31;51487;52.266;10.542;2023-04-12T10:06:14;11.51;74.81
64961;SHT31;51487;52.266;10.542;2023-04-12T10:08:40;11.34;75.86
64961;SHT31;51487;52.266;10.542;2023-04-12T10:11:06;11.26;76.76
64961;SHT31;51487;52.266;10.542;2023-04-12T10:13:31;11.15;76.77
64961;SHT31;51487;52.266;10.542;2023-04-12T10:15:59;11.24;76.94
64961;SHT31;51487;52.266;10.542;2023-04-12T10:18:25;11.22;77.83
64961;SHT31;51487;52.266;10.542;2023-04-12T10:20:51;11.18;78.30
64961;SHT31;51487;52.266;10.542;2023-04-12T10:23:17;11.23;78.41
64961;SHT31;51487;52.266;10.542;2023-04-12T10:25:45;11.34;78.42
64961;SHT31;51487;52.266;10.542;2023-04-12T10:28:18;11.29;78.83
64961;SHT31;51487;52.266;10.542;2023-04-12T10:30:45;11.27;78.40
64961;SHT31;51487;52.266;10.542;2023-04-12T10:33:15;11.30;79.29
64961;SHT31;51487;52.266;10.542;2023-04-12T10:36:00;11.13;81.00
64961;SHT31;51487;52.266;10.542;2023-04-12T10:38:28;11.12;80.01
64961;SHT31;51487;52.266;10.542;2023-04-12T10:41:11;11.06;80.12
64961;SHT31;51487;52.266;10.542;2023-04-12T10:43:38;10.74;80.39
64961;SHT31;51487;52.266;10.542;2023-04-12T10:46:04;10.76;81.57
64961;SHT31;51487;52.266;10.542;2023-04-12T10:48:49;10.50;82.13
64961;SHT31;51487;52.266;10.542;2023-04-12T10:51:18;10.55;81.84
64961;SHT31;51487;52.266;10.542;2023-04-12T10:56:35;10.40;82.29
64961;SHT31;51487;52.266;10.542;2023-04-12T10:59:06;10.44;82.75
64961;SHT31;51487;52.266;10.542;2023-04-12T11:01:32;10.40;83.49
64961;SHT31;51487;52.266;10.542;2023-04-12T11:04:16;10.58;84.00
64961;SHT31;51487;52.266;10.542;2023-04-12T11:14:34;10.72;83.96
64961;SHT31;51487;52.266;10.542;2023-04-12T11:19:32;10.58;85.56
64961;SHT31;51487;52.266;10.542;2023-04-12T11:22:03;10.65;86.06
64961;SHT31;51487;52.266;10.542;2023-04-12T11:24:28;10.65;85.51
64961;SHT31;51487;52.266;10.542;2023-04-12T11:26:55;10.75;85.92
64961;SHT31;51487;52.266;10.542;2023-04-12T11:29:25;10.68;85.18
64961;SHT31;51487;52.266;10.542;2023-04-12T11:31:50;10.74;85.30
64961;SHT31;51487;52.266;10.542;2023-04-12T11:34:16;10.43;86.12
64961;SHT31;51487;52.266;10.542;2023-04-12T11:36:44;10.54;85.63
64961;SHT31;51487;52.266;10.542;2023-04-12T11:39:10;10.44;85.18
64961;SHT31;51487;52.266;10.542;2023-04-12T11:41:36;10.48;85.57
64961;SHT31;51487;52.266;10.542;2023-04-12T11:44:01;10.38;85.74
64961;SHT31;51487;52.266;10.542;2023-04-12T11:46:32;10.29;85.96
64961;SHT31;51487;52.266;10.542;2023-04-12T11:48:58;10.23;86.48
64961;SHT31;51487;52.266;10.542;2023-04-12T11:51:24;10.29;86.22
64961;SHT31;51487;52.266;10.542;2023-04-12T11:53:54;10.24;85.83
64961;SHT31;51487;52.266;10.542;2023-04-12T11:56:21;10.03;87.06
64961;SHT31;51487;52.266;10.542;2023-04-12T11:58:47;9.90;86.89
64961;SHT31;51487;52.266;10.542;2023-04-12T12:01:16;9.97;86.59
64961;SHT31;51487;52.266;10.542;2023-04-12T12:03:43;9.85;86.80
64961;SHT31;51487;52.266;10.542;2023-04-12T12:06:09;9.86;86.95
64961;SHT31;51487;52.266;10.542;2023-04-12T12:08:35;9.86;87.60
64961;SHT31;51487;52.266;10.542;2023-04-12T12:11:01;9.86;88.54
64961;SHT31;51487;52.266;10.542;2023-04-12T12:13:26;9.94;88.99
64961;SHT31;51487;52.266;10.542;2023-04-12T12:15:52;10.14;89.25
64961;SHT31;51487;52.266;10.542;2023-04-12T12:18:17;10.14;89.40
64961;SHT31;51487;52.266;10.542;2023-04-12T12:20:50;10.33;88.77
64961;SHT31;51487;52.266;10.542;2023-04-12T12:23:32;10.34;88.27
64961;SHT31;51487;52.266;10.542;2023-04-12T12:25:58;10.40;87.84
64961;SHT31;51487;52.266;10.542;2023-04-12T12:28:23;10.40;88.41
64961;SHT31;51487;52.266;10.542;2023-04-12T12:30:53;10.17;88.98
64961;SHT31;51487;52.266;10.542;2023-04-12T12:33:19;10.03;89.19
64961;SHT31;51487;52.266;10.542;2023-04-12T12:35:45;10.09;89.34
64961;SHT31;51487;52.266;10.542;2023-04-12T12:38:10;10.07;89.30
64961;SHT31;51487;52.266;10.542;2023-04-12T12:40:36;10.00;89.55
64961;SHT31;51487;52.266;10.542;2023-04-12T12:43:02;9.99;90.17
64961;SHT31;51487;52.266;10.542;2023-04-12T12:45:28;10.14;90.04
64961;SHT31;51487;52.266;10.542;2023-04-12T12:48:02;10.27;89.41
64961;SHT31;51487;52.266;10.542;2023-04-12T12:50:33;10.30;89.20
64961;SHT31;51487;52.266;10.542;2023-04-12T12:52:59;10.43;89.24
64961;SHT31;51487;52.266;10.542;2023-04-12T12:55:26;10.48;88.42
64961;SHT31;51487;52.266;10.542;2023-04-12T12:57:53;10.32;88.94
64961;SHT31;51487;52.266;10.542;2023-04-12T13:00:22;10.43;88.85
64961;SHT31;51487;52.266;10.542;2023-04-12T13:02:48;10.44;89.11
64961;SHT31;51487;52.266;10.542;2023-04-12T13:05:15;10.44;89.45
64961;SHT31;51487;52.266;10.542;2023-04-12T13:07:40;10.43;89.48
64961;SHT31;51487;52.266;10.542;2023-04-12T13:10:07;10.34;89.20
64961;SHT31;51487;52.266;10.542;2023-04-12T13:12:33;10.43;88.96
64961;SHT31;51487;52.266;10.542;2023-04-12T13:14:59;10.57;89.44
64961;SHT31;51487;52.266;10.542;2023-04-12T13:17:28;10.40;89.14
64961;SHT31;51487;52.266;10.542;2023-04-12T13:19:53;10.57;89.16
64961;SHT31;51487;52.266;10.542;2023-04-12T13:22:19;10.47;89.24
64961;SHT31;51487;52.266;10.542;2023-04-12T13:24:45;10.54;89.11
64961;SHT31;51487;52.266;10.542;2023-04-12T13:27:12;10.54;89.47
64961;SHT31;51487;52.266;10.542;2023-04-12T13:29:37;10.75;88.50
64961;SHT31;51487;52.266;10.542;2023-04-12T13:32:03;10.75;87.36
64961;SHT31;51487;52.266;10.542;2023-04-12T13:34:29;10.64;87.84
64961;SHT31;51487;52.266;10.542;2023-04-12T13:36:55;10.76;87.49
64961;SHT31;51487;52.266;10.542;2023-04-12T13:39:20;10.69;87.39
64961;SHT31;51487;52.266;10.542;2023-04-12T13:41:46;10.79;87.55
64961;SHT31;51487;52.266;10.542;2023-04-12T13:44:11;10.74;87.44
64961;SHT31;51487;52.266;10.542;2023-04-12T13:46:36;10.78;87.07
64961;SHT31;51487;52.266;10.542;2023-04-12T13:49:02;10.61;87.51
64961;SHT31;51487;52.266;10.542;2023-04-12T13:51:27;10.69;87.27
64961;SHT31;51487;52.266;10.542;2023-04-12T13:53:54;10.83;87.34
64961;SHT31;51487;52.266;10.542;2023-04-12T13:56:19;10.85;87.96
64961;SHT31;51487;52.266;10.542;2023-04-12T13:58:45;10.68;86.87
64961;SHT31;51487;52.266;10.542;2023-04-12T14:01:11;10.75;87.32
64961;SHT31;51487;52.266;10.542;2023-04-12T14:03:37;10.69;87.36
64961;SHT31;51487;52.266;10.542;2023-04-12T14:06:04;10.69;86.94
64961;SHT31;51487;52.266;10.542;2023-04-12T14:08:29;10.61;87.73
64961;SHT31;51487;52.266;10.542;2023-04-12T14:10:54;10.47;88.21
64961;SHT31;51487;52.266;10.542;2023-04-12T14:13:25;10.58;88.21
64961;SHT31;51487;52.266;10.542;2023-04-12T14:15:50;10.38;88.24
64961;SHT31;51487;52.266;10.542;2023-04-12T14:18:16;10.45;89.09
64961;SHT31;51487;52.266;10.542;2023-04-12T14:20:42;10.43;89.56
64961;SHT31;51487;52.266;10.542;2023-04-12T14:23:13;10.50;89.91
64961;SHT31;51487;52.266;10.542;2023-04-12T14:25:39;10.57;89.36
64961;SHT31;51487;52.266;10.542;2023-04-12T14:28:05;10.60;88.64
64961;SHT31;51487;52.266;10.542;2023-04-12T14:30:30;10.45;89.30
64961;SHT31;51487;52.266;10.542;2023-04-12T14:32:55;10.41;89.08
64961;SHT31;51487;52.266;10.542;2023-04-12T14:35:21;10.61;88.93
64961;SHT31;51487;52.266;10.542;2023-04-12T14:37:46;10.57;88.73
64961;SHT31;51487;52.266;10.542;2023-04-12T14:40:12;10.68;88.85
64961;SHT31;51487;52.266;10.542;2023-04-12T14:42:37;10.93;88.31
64961;SHT31;51487;52.266;10.542;2023-04-12T14:45:03;11.26;87.36
64961;SHT31;51487;52.266;10.542;2023-04-12T14:47:32;11.32;86.86
64961;SHT31;51487;52.266;10.542;2023-04-12T14:49:58;11.46;87.09
64961;SHT31;51487;52.266;10.542;2023-04-12T14:52:23;11.54;86.43
64961;SHT31;51487;52.266;10.542;2023-04-12T14:54:48;11.46;87.29
64961;SHT31;51487;52.266;10.542;2023-04-12T14:57:14;11.51;86.86
64961;SHT31;51487;52.266;10.542;2023-04-12T14:59:39;11.74;86.29
64961;SHT31;51487;52.266;10.542;2023-04-12T15:02:04;11.73;86.49
64961;SHT31;51487;52.266;10.542;2023-04-12T15:04:30;11.69;85.55
64961;SHT31;51487;52.266;10.542;2023-04-12T15:06:56;11.50;85.82
64961;SHT31;51487;52.266;10.542;2023-04-12T15:09:21;11.39;86.68
64961;SHT31;51487;52.266;10.542;2023-04-12T15:11:50;11.29;86.24
64961;SHT31;51487;52.266;10.542;2023-04-12T15:14:19;11.37;86.05
64961;SHT31;51487;52.266;10.542;2023-04-12T15:16:45;11.33;86.48
64961;SHT31;51487;52.266;10.542;2023-04-12T15:19:13;11.33;86.32
64961;SHT31;51487;52.266;10.542;2023-04-12T15:21:38;11.46;85.87
64961;SHT31;51487;52.266;10.542;2023-04-12T15:24:04;11.47;85.76
64961;SHT31;51487;52.266;10.542;2023-04-12T15:26:29;11.49;85.58
64961;SHT31;51487;52.266;10.542;2023-04-12T15:28:55;11.44;86.28
64961;SHT31;51487;52.266;10.542;2023-04-12T15:31:20;11.36;86.42
64961;SHT31;51487;52.266;10.542;2023-04-12T15:33:45;11.50;86.38
64961;SHT31;51487;52.266;10.542;2023-04-12T15:36:11;11.24;86.87
64961;SHT31;51487;52.266;10.542;2023-04-12T15:38:40;11.39;86.92
64961;SHT31;51487;52.266;10.542;2023-04-12T15:41:09;11.43;86.90
64961;SHT31;51487;52.266;10.542;2023-04-12T15:43:35;11.49;86.71
64961;SHT31;51487;52.266;10.542;2023-04-12T15:46:00;11.44;86.29
64961;SHT31;51487;52.266;10.542;2023-04-12T15:48:26;11.43;86.71
64961;SHT31;51487;52.266;10.542;2023-04-12T15:50:54;11.43;86.83
64961;SHT31;51487;52.266;10.542;2023-04-12T15:53:22;11.46;86.93